createdAt,value
2023-02-22T00:00:59.844Z,94971.31
2023-02-22T00:03:27.247Z,94980.06
2023-02-22T00:06:00.512Z,94960.19
2023-02-22T00:08:31.471Z,94981.22
2023-02-22T00:11:02.198Z,94977.59
2023-02-22T00:13:29.357Z,94967.88
2023-02-22T00:15:57.139Z,94977.13
2023-02-22T00:18:28.106Z,94977.53
2023-02-22T00:21:01.667Z,94981.53
2023-02-22T00:23:32.988Z,94970.97
2023-02-22T00:26:04.907Z,94978.44
2023-02-22T00:28:33.721Z,94967.88
2023-02-22T00:31:06.198Z,94972.13
2023-02-22T00:33:36.646Z,94959.53
2023-02-22T00:36:05.946Z,94964.00
2023-02-22T00:38:35.304Z,94965.16
2023-02-22T00:41:04.615Z,94962.75
2023-02-22T00:43:33.538Z,94948.97
2023-02-22T00:46:00.262Z,94962.31
2023-02-22T00:48:31.842Z,94951.75
2023-02-22T00:51:03.240Z,94953.94
2023-02-22T00:53:29.868Z,94946.00
2023-02-22T00:56:01.631Z,94943.94
2023-02-22T00:58:33.830Z,94926.78
2023-02-22T01:01:02.582Z,94941.91
2023-02-22T01:03:29.297Z,94933.72
2023-02-22T01:05:58.234Z,94929.28
2023-02-22T01:08:25.216Z,94929.28
2023-02-22T01:10:54.168Z,94925.00
2023-02-22T01:13:23.106Z,94926.63
2023-02-22T01:15:50.010Z,94929.28
2023-02-22T01:18:17.402Z,94928.22
2023-02-22T01:20:48.132Z,94922.94
2023-02-22T01:23:17.531Z,94921.91
2023-02-22T01:25:44.331Z,94923.31
2023-02-22T01:28:10.993Z,94920.44
2023-02-22T01:30:37.835Z,94921.47
2023-02-22T01:33:07.348Z,94917.59
2023-02-22T01:35:38.580Z,94917.34
2023-02-22T01:38:05.158Z,94918.16
2023-02-22T01:40:36.021Z,94918.97
2023-02-22T01:43:05.210Z,94921.84
2023-02-22T01:45:34.663Z,94925.28
2023-02-22T01:48:30.886Z,94920.56
2023-02-22T01:51:21.764Z,94925.06
2023-02-22T01:53:53.545Z,94925.84
2023-02-22T01:56:22.681Z,94923.22
2023-02-22T01:58:55.018Z,94929.13
2023-02-22T02:01:24.416Z,94930.16
2023-02-22T02:03:58.168Z,94925.84
2023-02-22T02:06:27.084Z,94929.13
2023-02-22T02:08:56.099Z,94936.03
2023-02-22T02:11:25.649Z,94931.97
2023-02-22T02:13:55.346Z,94926.69
2023-02-22T02:16:23.913Z,94924.84
2023-02-22T02:18:50.575Z,94931.16
2023-02-22T02:21:49.951Z,94932.78
2023-02-22T02:24:40.394Z,94932.56
2023-02-22T02:27:23.158Z,94934.41
2023-02-22T02:30:18.304Z,94939.69
2023-02-22T02:32:50.577Z,94939.69
2023-02-22T02:35:26.974Z,94946.03
2023-02-22T02:38:27.380Z,94936.81
2023-02-22T02:41:23.154Z,94937.63
2023-02-22T02:44:09.080Z,94942.69
2023-02-22T02:46:59.396Z,94946.34
2023-02-22T02:49:46.686Z,94949.81
2023-02-22T02:52:16.218Z,94951.44
2023-02-22T02:54:45.817Z,94951.88
2023-02-22T02:57:15.747Z,94952.22
2023-02-22T02:59:44.587Z,94949.59
2023-02-22T03:02:27.233Z,94949.81
2023-02-22T03:05:26.190Z,94955.13
2023-02-22T03:07:52.790Z,94955.91
2023-02-22T03:10:31.697Z,94953.06
2023-02-22T03:13:29.937Z,94953.50
2023-02-22T03:16:11.874Z,94956.94
2023-02-22T03:19:08.371Z,94952.69
2023-02-22T03:21:41.825Z,94949.00
2023-02-22T03:24:19.038Z,94958.78
2023-02-22T03:26:50.294Z,94951.88
2023-02-22T03:29:19.389Z,94948.22
2023-02-22T03:31:54.999Z,94946.59
2023-02-22T03:34:29.834Z,94950.84
2023-02-22T03:37:06.646Z,94957.19
2023-02-22T03:39:35.478Z,94940.13
2023-02-22T03:42:08.910Z,94946.03
2023-02-22T03:44:38.018Z,94947.38
2023-02-22T03:47:09.827Z,94952.47
2023-02-22T03:49:42.731Z,94948.78
2023-02-22T03:52:17.414Z,94951.44
2023-02-22T03:54:46.752Z,94945.31
2023-02-22T03:57:20.475Z,94928.81
2023-02-22T03:59:47.098Z,94949.81
2023-02-22T04:02:13.937Z,94948.22
2023-02-22T04:04:40.646Z,94949.81
2023-02-22T04:07:09.651Z,94946.59
2023-02-22T04:09:38.650Z,94939.69
2023-02-22T04:12:05.575Z,94943.38
2023-02-22T04:14:32.232Z,94942.56
2023-02-22T04:16:58.909Z,94946.81
2023-02-22T04:19:27.887Z,94928.00
2023-02-22T04:21:56.864Z,94936.75
2023-02-22T04:24:23.574Z,94948.66
2023-02-22T04:26:50.341Z,94948.06
2023-02-22T04:29:16.981Z,94950.94
2023-02-22T04:31:45.946Z,94961.28
2023-02-22T04:34:12.740Z,94959.66
2023-02-22T04:36:42.316Z,94952.19
2023-02-22T04:39:11.401Z,94964.00
2023-02-22T04:41:40.347Z,94959.53
2023-02-22T04:44:09.163Z,94954.81
2023-02-22T04:46:38.083Z,94959.53
2023-02-22T04:49:06.964Z,94955.28
2023-02-22T04:51:35.716Z,94953.06
2023-02-22T04:54:02.464Z,94950.44
2023-02-22T04:56:31.264Z,94949.97
2023-02-22T04:58:58.026Z,94945.94
2023-02-22T05:01:27.046Z,94961.78
2023-02-22T05:03:54.556Z,94964.69
2023-02-22T05:06:23.349Z,94963.06
2023-02-22T05:08:50.110Z,94961.41
2023-02-22T05:11:22.062Z,94958.19
2023-02-22T05:13:50.889Z,94968.78
2023-02-22T05:16:20.120Z,94966.72
2023-02-22T05:18:49.030Z,94964.69
2023-02-22T05:21:18.134Z,94962.25
2023-02-22T05:23:47.255Z,94972.63
2023-02-22T05:26:16.872Z,94971.59
2023-02-22T05:28:45.830Z,94978.94
2023-02-22T05:31:15.541Z,94976.50
2023-02-22T05:33:42.387Z,94983.59
2023-02-22T05:36:11.412Z,94987.16
2023-02-22T05:38:43.487Z,94994.50
2023-02-22T05:41:11.394Z,94997.72
2023-02-22T05:43:38.920Z,94998.09
2023-02-22T05:46:08.724Z,95004.63
2023-02-22T05:48:35.445Z,95004.63
2023-02-22T05:51:05.304Z,95010.75
2023-02-22T05:53:34.224Z,94997.41
2023-02-22T05:56:00.891Z,95008.28
2023-02-22T05:58:27.566Z,95009.09
2023-02-22T06:01:00.148Z,95008.16
2023-02-22T06:03:33.106Z,95019.31
2023-02-22T06:05:59.766Z,95016.09
2023-02-22T06:08:29.586Z,95005.72
2023-02-22T06:11:01.125Z,95020.94
2023-02-22T06:13:30.142Z,95013.44
2023-02-22T06:15:56.891Z,94996.03
2023-02-22T06:18:26.683Z,95012.81
2023-02-22T06:20:55.893Z,95014.88
2023-02-22T06:23:22.683Z,95016.50
2023-02-22T06:25:55.023Z,95011.22
2023-02-22T06:28:23.806Z,95003.13
2023-02-22T06:30:50.534Z,95001.06
2023-02-22T06:33:17.200Z,94981.22
2023-02-22T06:35:48.553Z,95008.34
2023-02-22T06:38:25.106Z,94994.03
2023-02-22T06:40:55.384Z,94995.47
2023-02-22T06:43:24.978Z,95015.72
2023-02-22T06:45:52.536Z,95015.72
2023-02-22T06:48:21.472Z,95012.25
2023-02-22T06:50:48.074Z,95013.28
2023-02-22T06:53:16.994Z,95018.13
2023-02-22T06:55:43.950Z,95009.16
2023-02-22T06:58:10.627Z,95004.31
2023-02-22T07:00:40.278Z,95005.91
2023-02-22T07:03:09.203Z,95004.31
2023-02-22T07:05:38.313Z,95011.78
2023-02-22T07:08:08.787Z,95016.09
2023-02-22T07:10:38.976Z,95013.00
2023-02-22T07:13:06.568Z,95010.78
2023-02-22T07:15:36.028Z,95008.75
2023-02-22T07:18:07.442Z,95014.03
2023-02-22T07:20:34.110Z,95011.38
2023-02-22T07:23:05.501Z,95016.22
2023-02-22T07:25:34.514Z,95024.16
2023-02-22T07:28:01.200Z,95016.81
2023-02-22T07:30:34.397Z,95020.03
2023-02-22T07:33:02.710Z,95023.16
2023-02-22T07:35:30.160Z,95005.78
2023-02-22T07:37:57.033Z,95016.25
2023-02-22T07:40:24.385Z,95016.13
2023-02-22T07:43:01.443Z,95010.28
2023-02-22T07:45:34.426Z,95007.94
2023-02-22T07:48:04.758Z,95011.81
2023-02-22T07:50:32.587Z,95008.38
2023-02-22T07:53:05.386Z,95010.63
2023-02-22T07:55:32.659Z,95011.66
2023-02-22T07:58:03.166Z,95004.13
2023-02-22T08:00:37.629Z,95004.41
2023-02-22T08:03:05.865Z,94995.75
2023-02-22T08:05:33.341Z,94996.72
2023-02-22T08:08:00.000Z,94996.47
2023-02-22T08:10:26.932Z,94995.13
2023-02-22T08:12:56.372Z,94996.72
2023-02-22T08:15:36.395Z,94995.41
2023-02-22T08:18:06.350Z,94988.00
2023-02-22T08:20:35.331Z,94990.38
2023-02-22T08:23:02.032Z,94986.56
2023-02-22T08:25:31.565Z,94994.22
2023-02-22T08:28:02.326Z,94987.59
2023-02-22T08:30:30.195Z,94984.69
2023-02-22T08:32:59.198Z,94982.63
2023-02-22T08:35:27.584Z,94981.13
2023-02-22T08:37:58.641Z,94979.22
2023-02-22T08:40:31.051Z,94974.06
2023-02-22T08:42:58.003Z,94973.63
2023-02-22T08:45:29.437Z,94980.47
2023-02-22T08:47:58.579Z,94971.81
2023-02-22T08:50:29.986Z,94971.97
2023-02-22T08:52:59.790Z,94971.06
2023-02-22T08:55:28.263Z,94975.47
2023-02-22T08:57:57.049Z,94979.88
2023-02-22T09:00:26.481Z,94965.13
2023-02-22T09:02:55.362Z,94966.31
2023-02-22T09:05:22.075Z,94967.47
2023-02-22T09:07:48.847Z,94963.31
2023-02-22T09:10:20.591Z,94960.44
2023-02-22T09:12:47.307Z,94961.25
2023-02-22T09:15:15.045Z,94960.81
2023-02-22T09:17:43.891Z,94962.81
2023-02-22T09:20:12.443Z,94958.31
2023-02-22T09:22:39.404Z,94960.28
2023-02-22T09:25:16.708Z,94959.03
2023-02-22T09:27:48.007Z,94961.44
2023-02-22T09:30:23.880Z,94958.56
2023-02-22T09:32:57.641Z,94955.66
2023-02-22T09:35:29.724Z,94952.81
2023-02-22T09:37:59.483Z,94951.88
2023-02-22T09:40:30.263Z,94948.22
2023-02-22T09:43:07.744Z,94947.75
2023-02-22T09:45:40.746Z,94949.34
2023-02-22T09:48:21.158Z,94946.25
2023-02-22T09:50:51.176Z,94941.50
2023-02-22T09:53:49.863Z,94940.59
2023-02-22T09:56:18.716Z,94941.97
2023-02-22T09:58:49.745Z,94919.94
2023-02-22T10:01:32.984Z,94939.09
2023-02-22T10:04:01.857Z,94932.66
2023-02-22T10:06:30.934Z,94927.09
2023-02-22T10:08:59.348Z,94922.28
2023-02-22T10:11:41.228Z,94915.34
2023-02-22T10:14:33.314Z,94911.66
2023-02-22T10:17:42.058Z,94902.31
2023-02-22T10:20:13.452Z,94905.56
2023-02-22T10:22:49.117Z,94905.56
2023-02-22T10:25:19.305Z,94902.94
2023-02-22T10:27:57.194Z,94895.75
2023-02-22T10:30:33.971Z,94886.78
2023-02-22T10:33:22.452Z,94882.97
2023-02-22T10:35:49.156Z,94871.44
2023-02-22T10:38:40.117Z,94871.19
2023-02-22T10:41:09.683Z,94871.50
2023-02-22T10:43:44.000Z,94864.22
2023-02-22T10:46:17.269Z,94863.75
2023-02-22T10:48:47.740Z,94846.88
2023-02-22T10:51:14.366Z,94843.25
2023-02-22T10:53:44.702Z,94847.63
2023-02-22T10:56:16.862Z,94829.25
2023-02-22T10:58:53.202Z,94838.97
2023-02-22T11:01:22.942Z,94829.56
2023-02-22T11:04:10.998Z,94831.31
2023-02-22T11:06:37.936Z,94811.59
2023-02-22T11:09:13.325Z,94822.94
2023-02-22T11:11:45.397Z,94821.28
2023-02-22T11:14:12.589Z,94827.06
2023-02-22T11:16:52.729Z,94820.84
2023-02-22T11:19:20.761Z,94814.16
2023-02-22T11:21:48.692Z,94808.19
2023-02-22T11:26:49.180Z,94808.03
2023-02-22T11:29:38.803Z,94804.09
2023-02-22T11:32:21.191Z,94798.31
2023-02-22T11:34:52.833Z,94800.50
2023-02-22T11:37:22.460Z,94794.63
2023-02-22T11:39:52.426Z,94790.16
2023-02-22T11:42:26.390Z,94788.19
2023-02-22T11:45:21.213Z,94788.75
2023-02-22T11:47:55.243Z,94777.09
2023-02-22T11:50:29.523Z,94780.59
2023-02-22T11:53:14.444Z,94787.72
2023-02-22T11:55:53.246Z,94774.75
2023-02-22T11:58:45.761Z,94757.88
2023-02-22T12:01:32.803Z,94766.97
2023-02-22T12:04:22.614Z,94766.22
2023-02-22T12:07:10.586Z,94775.84
2023-02-22T12:09:42.190Z,94763.75
2023-02-22T12:12:43.018Z,94766.78
2023-02-22T12:15:38.991Z,94760.69
2023-02-22T12:18:14.571Z,94766.16
2023-02-22T12:20:49.529Z,94754.38
2023-02-22T12:23:44.926Z,94752.78
2023-02-22T12:26:20.214Z,94757.84
2023-02-22T12:28:59.463Z,94754.97
2023-02-22T12:31:30.485Z,94743.56
2023-02-22T12:34:27.347Z,94744.00
2023-02-22T12:37:01.644Z,94744.13
2023-02-22T12:39:40.960Z,94742.31
2023-02-22T12:42:17.563Z,94736.97
2023-02-22T12:44:46.535Z,94732.84
2023-02-22T12:47:18.488Z,94725.16
2023-02-22T12:49:50.946Z,94732.66
2023-02-22T12:52:29.743Z,94726.88
2023-02-22T12:55:25.518Z,94736.22
2023-02-22T12:58:04.592Z,94728.25
2023-02-22T13:00:51.374Z,94722.88
2023-02-22T13:03:38.648Z,94719.66
2023-02-22T13:06:21.873Z,94718.81
2023-02-22T13:09:18.710Z,94718.47
2023-02-22T13:12:03.517Z,94723.53
2023-02-22T13:15:12.989Z,94718.56
2023-02-22T13:17:51.387Z,94719.38
2023-02-22T13:20:47.021Z,94719.41
2023-02-22T13:23:22.672Z,94709.69
2023-02-22T13:26:00.607Z,94704.94
2023-02-22T13:28:45.468Z,94709.41
2023-02-22T13:31:24.178Z,94702.84
2023-02-22T13:34:09.762Z,94709.28
2023-02-22T13:36:38.754Z,94717.81
2023-02-22T13:39:54.721Z,94710.66
2023-02-22T13:42:53.694Z,94700.84
2023-02-22T13:45:51.398Z,94705.22
2023-02-22T13:48:56.453Z,94702.78
2023-02-22T13:52:13.550Z,94703.81
2023-02-22T13:54:40.153Z,94706.47
2023-02-22T21:59:00.281Z,94841.22
2023-02-22T22:01:32.627Z,94845.78
2023-02-22T22:04:01.513Z,94839.97
2023-02-22T22:06:29.866Z,94834.41
2023-02-22T22:09:00.143Z,94836.94
2023-02-22T22:11:30.734Z,94839.03
2023-02-22T22:13:59.596Z,94837.91
2023-02-22T22:16:29.836Z,94838.69
2023-02-22T22:18:56.806Z,94833.09
2023-02-22T22:21:28.172Z,94840.44
2023-02-22T22:23:57.313Z,94850.56
2023-02-22T22:26:24.790Z,94839.22
2023-02-22T22:28:55.835Z,94845.88
2023-02-22T22:31:25.862Z,94847.28
2023-02-22T22:33:55.123Z,94846.84
2023-02-22T22:36:24.182Z,94851.91
2023-02-22T22:38:53.518Z,94844.00
2023-02-22T22:41:23.636Z,94838.72
2023-02-22T22:43:52.489Z,94847.22
2023-02-22T22:46:19.157Z,94842.97
2023-02-22T22:48:47.408Z,94838.28
2023-02-22T22:51:19.281Z,94838.28
2023-02-22T22:53:46.987Z,94846.78
2023-02-22T22:56:25.972Z,94841.50
2023-02-22T22:58:59.891Z,94843.09
2023-02-22T23:01:33.957Z,94839.44
2023-02-22T23:04:09.983Z,94848.97
2023-02-22T23:06:43.082Z,94843.69
2023-02-22T23:09:13.377Z,94838.41
2023-02-22T23:11:45.186Z,94842.69
2023-02-22T23:14:15.557Z,94840.66
2023-02-22T23:16:45.490Z,94831.69
2023-02-22T23:19:15.802Z,94839.63
2023-02-22T23:21:43.946Z,94835.94
2023-02-22T23:24:15.126Z,94845.47
2023-02-22T23:26:41.931Z,94839.38
2023-02-22T23:29:08.846Z,94838.59
2023-02-22T23:31:39.823Z,94838.59
2023-02-22T23:34:11.261Z,94840.19
2023-02-22T23:36:44.490Z,94837.56
2023-02-22T23:39:16.455Z,94840.19
2023-02-22T23:41:45.269Z,94841.81
2023-02-22T23:44:17.446Z,94841.81
2023-02-22T23:46:48.201Z,94841.81
2023-02-22T23:49:20.074Z,94840.19
2023-02-22T23:51:46.969Z,94834.09
2023-02-22T23:54:15.385Z,94841.00
2023-02-22T23:56:47.323Z,94840.78
2023-02-22T23:59:17.165Z,94840.59
